Time;durP1;ratioP1;P1;durP2;ratioP2;P2;SDS_P1;SDS_P2;PMS_P1;PMS_P2;Temp;Humidity;BMP_temperature;BMP_pressure;BME280_temperature;BME280_humidity;BME280_pressure;Samples;Min_cycle;Max_cycle;Signal;HPM_P1;HPM_P2
2023/06/02 00:02:22;;;;;;;10.70;7.60;;;17.80;1.00;;;;;;5011905;28;20529;-75
2023/06/02 00:04:49;;;;;;;9.30;7.40;;;17.80;1.00;;;;;;5010353;28;20256;-76
2023/06/02 00:07:15;;;;;;;12.33;8.30;;;17.70;1.00;;;;;;5011379;28;20451;-75
2023/06/02 00:09:42;;;;;;;13.50;8.13;;;17.70;1.00;;;;;;5011800;28;20931;-75
2023/06/02 00:12:10;;;;;;;11.77;7.83;;;17.70;1.00;;;;;;5012377;28;20430;-75
2023/06/02 00:14:42;;;;;;;10.13;7.47;;;17.60;1.00;;;;;;5011714;28;20938;-76
2023/06/02 00:17:08;;;;;;;13.40;7.97;;;17.50;1.00;;;;;;5004405;28;20472;-76
2023/06/02 00:19:35;;;;;;;13.53;7.90;;;17.50;1.00;;;;;;5011835;28;20426;-76
2023/06/02 00:22:02;;;;;;;10.23;7.60;;;17.30;1.00;;;;;;5010108;28;20941;-76
2023/06/02 00:24:28;;;;;;;13.00;8.20;;;17.30;1.00;;;;;;5011599;28;20437;-76
2023/06/02 00:26:53;;;;;;;11.77;7.90;;;17.30;1.00;;;;;;5010119;28;20812;-76
2023/06/02 00:29:19;;;;;;;10.30;7.43;;;17.20;1.00;;;;;;5011418;28;20233;-75
2023/06/02 00:31:44;;;;;;;13.57;8.83;;;17.20;1.00;;;;;;5010698;28;20213;-75
2023/06/02 00:34:10;;;;;;;10.37;7.27;;;17.10;1.00;;;;;;5010308;28;20609;-75
2023/06/02 00:36:36;;;;;;;9.83;7.20;;;17.00;1.00;;;;;;5009797;28;20234;-75
2023/06/02 00:39:02;;;;;;;12.50;7.73;;;17.00;1.00;;;;;;5010644;28;20249;-75
2023/06/02 00:41:28;;;;;;;10.43;7.47;;;16.80;1.00;;;;;;5011258;28;20179;-75
2023/06/02 00:43:53;;;;;;;11.23;7.20;;;16.80;1.00;;;;;;5009584;28;20986;-75
2023/06/02 00:46:19;;;;;;;14.10;7.57;;;16.70;1.00;;;;;;5009813;28;20241;-75
2023/06/02 00:48:48;;;;;;;12.30;7.27;;;16.80;1.00;;;;;;5010767;28;20191;-75
2023/06/02 00:51:13;;;;;;;13.33;6.90;;;16.80;1.00;;;;;;5011073;28;20183;-75
2023/06/02 00:53:39;;;;;;;22.40;7.43;;;16.70;1.00;;;;;;5011033;28;20536;-75
2023/06/02 00:56:05;;;;;;;10.50;7.30;;;16.60;1.00;;;;;;4999828;28;20203;-74
2023/06/02 00:58:37;;;;;;;9.67;6.93;;;16.60;1.00;;;;;;5010500;28;20186;-75
2023/06/02 01:01:03;;;;;;;11.23;8.10;;;16.60;1.00;;;;;;5010750;28;20444;-76
2023/06/02 01:03:29;;;;;;;12.43;8.00;;;16.50;1.00;;;;;;5010870;28;20464;-73
2023/06/02 01:05:56;;;;;;;14.90;7.70;;;16.50;1.00;;;;;;5010612;28;20481;-75
2023/06/02 01:08:23;;;;;;;11.67;7.53;;;16.40;1.00;;;;;;5010749;28;20236;-75
2023/06/02 01:10:50;;;;;;;14.10;8.20;;;16.30;1.00;;;;;;5010666;28;20524;-75
2023/06/02 01:13:16;;;;;;;11.53;8.10;;;16.30;1.00;;;;;;5010869;28;20437;-75
2023/06/02 01:15:45;;;;;;;11.17;8.10;;;16.30;1.00;;;;;;5010443;28;20449;-74
2023/06/02 01:18:12;;;;;;;10.33;7.37;;;16.30;1.00;;;;;;5009727;28;20202;-75
2023/06/02 01:20:44;;;;;;;10.83;7.50;;;16.30;1.00;;;;;;5009255;28;20838;-75
2023/06/02 01:23:15;;;;;;;9.90;7.30;;;16.20;1.00;;;;;;5003115;28;20429;-75
2023/06/02 01:25:41;;;;;;;13.53;7.27;;;16.10;1.00;;;;;;5010698;28;20591;-76
2023/06/02 01:28:07;;;;;;;12.40;7.37;;;16.90;1.00;;;;;;5002402;28;20979;-75
2023/06/02 01:30:33;;;;;;;9.73;7.10;;;16.00;1.00;;;;;;5010646;28;20191;-75
2023/06/02 01:33:32;;;;;;;10.07;7.50;;;15.90;1.00;;;;;;5009530;28;20429;-75
2023/06/02 01:35:59;;;;;;;11.43;6.97;;;15.80;1.00;;;;;;4969626;28;20980;-75
2023/06/02 01:38:28;;;;;;;9.20;7.10;;;15.70;1.00;;;;;;5010363;28;20438;-76
2023/06/02 01:40:57;;;;;;;9.23;6.70;;;15.80;1.00;;;;;;5010251;28;20827;-75
2023/06/02 01:43:23;;;;;;;10.43;6.80;;;15.70;1.00;;;;;;5009073;28;20437;-76
2023/06/02 01:45:49;;;;;;;12.47;6.70;;;15.60;1.00;;;;;;5009786;28;21025;-75
2023/06/02 01:48:15;;;;;;;10.13;7.00;;;15.60;1.00;;;;;;5010925;28;20179;-75
2023/06/02 01:50:41;;;;;;;10.47;6.53;;;15.60;1.00;;;;;;5010868;28;21139;-75
2023/06/02 01:53:06;;;;;;;15.23;7.00;;;15.60;1.00;;;;;;5010734;28;20258;-75
2023/06/02 01:55:33;;;;;;;9.60;7.33;;;15.50;1.00;;;;;;5010639;28;20202;-75
2023/06/02 01:57:58;;;;;;;8.80;6.30;;;15.40;1.00;;;;;;5002027;28;20206;-75
2023/06/02 02:00:24;;;;;;;9.97;7.70;;;15.40;1.00;;;;;;5010608;28;20464;-75
2023/06/02 02:02:50;;;;;;;8.30;7.10;;;15.30;1.00;;;;;;5010157;28;20179;-75
2023/06/02 02:05:16;;;;;;;9.30;6.60;;;15.30;1.00;;;;;;5010477;28;20203;-75
2023/06/02 02:07:42;;;;;;;11.60;6.83;;;15.20;1.00;;;;;;5010503;28;20456;-75
2023/06/02 02:10:10;;;;;;;10.30;7.20;;;15.10;1.00;;;;;;5009130;28;20182;-75
2023/06/02 02:12:36;;;;;;;11.10;6.90;;;15.10;1.00;;;;;;5010664;28;20509;-75
2023/06/02 02:15:01;;;;;;;10.93;6.30;;;15.10;1.00;;;;;;5010147;28;20599;-74
2023/06/02 02:17:28;;;;;;;10.20;6.70;;;17.20;1.00;;;;;;5010354;28;20766;-75
2023/06/02 02:19:55;;;;;;;10.17;7.17;;;15.00;1.00;;;;;;5010324;28;20252;-75
2023/06/02 02:22:22;;;;;;;8.73;6.90;;;15.00;1.00;;;;;;5010531;28;20426;-75
2023/06/02 02:24:48;;;;;;;10.03;6.97;;;15.00;1.00;;;;;;5010471;28;20441;-76
2023/06/02 02:27:14;;;;;;;11.70;7.67;;;15.00;1.00;;;;;;5010327;28;20943;-75
2023/06/02 02:29:39;;;;;;;8.20;6.30;;;14.90;1.00;;;;;;5011657;28;20191;-75
2023/06/02 02:32:06;;;;;;;9.10;6.40;;;14.80;1.00;;;;;;5013954;28;20193;-75
2023/06/02 02:34:32;;;;;;;9.10;6.07;;;14.80;1.00;;;;;;5014034;28;20187;-75
2023/06/02 02:37:01;;;;;;;14.57;6.33;;;14.80;1.00;;;;;;5013765;28;20457;-75
2023/06/02 02:39:29;;;;;;;12.43;7.33;;;14.80;1.00;;;;;;5013162;28;20426;-75
2023/06/02 02:41:54;;;;;;;11.10;6.90;;;14.80;1.00;;;;;;5013731;28;20508;-75
2023/06/02 02:44:20;;;;;;;8.97;6.80;;;14.80;1.00;;;;;;5014099;28;20508;-75
2023/06/02 02:46:45;;;;;;;11.23;7.50;;;14.80;1.00;;;;;;5013826;28;20206;-76
2023/06/02 02:49:11;;;;;;;9.43;6.50;;;14.70;1.00;;;;;;5013828;28;20281;-75
2023/06/02 02:51:37;;;;;;;9.90;6.77;;;14.70;1.00;;;;;;5013890;28;20605;-75
2023/06/02 02:54:03;;;;;;;11.07;6.43;;;14.60;1.00;;;;;;5013639;28;20193;-75
2023/06/02 02:56:30;;;;;;;9.50;7.37;;;14.60;1.00;;;;;;5012127;28;20693;-75
2023/06/02 02:58:57;;;;;;;9.20;7.00;;;14.50;1.00;;;;;;5013541;28;20425;-75
2023/06/02 03:01:24;;;;;;;8.50;6.50;;;14.50;1.00;;;;;;5013666;28;20460;-75
2023/06/02 03:03:50;;;;;;;9.73;6.60;;;14.50;1.00;;;;;;5013076;28;20417;-74
2023/06/02 03:06:18;;;;;;;10.90;6.70;;;14.50;1.00;;;;;;5013523;28;20495;-75
2023/06/02 03:08:47;;;;;;;8.60;6.60;;;14.50;1.00;;;;;;5013652;28;20189;-75
2023/06/02 03:11:13;;;;;;;10.10;7.43;;;14.40;1.00;;;;;;5013220;28;20802;-74
2023/06/02 03:13:38;;;;;;;9.37;6.63;;;14.40;1.00;;;;;;5013486;28;20425;-75
2023/06/02 03:16:04;;;;;;;11.87;7.67;;;14.30;1.00;;;;;;5012980;28;20444;-75
2023/06/02 03:18:30;;;;;;;9.20;6.33;;;14.30;1.00;;;;;;5013359;28;20189;-75
2023/06/02 03:20:58;;;;;;;9.37;6.97;;;14.30;1.00;;;;;;5011950;28;20182;-75
2023/06/02 03:23:25;;;;;;;9.17;6.83;;;14.20;1.00;;;;;;5013435;28;20203;-75
2023/06/02 03:25:51;;;;;;;10.40;7.30;;;14.20;1.00;;;;;;5012790;28;20451;-74
2023/06/02 03:28:18;;;;;;;9.20;6.73;;;14.20;1.00;;;;;;5012779;28;20425;-75
2023/06/02 03:30:43;;;;;;;13.03;6.93;;;14.20;1.00;;;;;;5013359;28;20610;-75
2023/06/02 03:33:09;;;;;;;8.00;5.90;;;14.30;1.00;;;;;;5012509;28;21011;-75
2023/06/02 03:35:35;;;;;;;7.60;6.50;;;14.20;1.00;;;;;;5013031;28;20210;-75
2023/06/02 03:38:00;;;;;;;11.60;7.60;;;14.20;1.00;;;;;;5012580;28;20285;-76
2023/06/02 03:40:26;;;;;;;11.60;7.00;;;14.20;1.00;;;;;;5012831;28;20182;-75
2023/06/02 03:42:51;;;;;;;9.10;6.60;;;14.20;1.00;;;;;;5011798;28;20489;-74
2023/06/02 03:45:17;;;;;;;9.10;6.63;;;14.10;1.00;;;;;;5012898;28;20305;-74
2023/06/02 03:47:42;;;;;;;9.23;6.77;;;14.10;1.00;;;;;;5011519;28;20552;-75
2023/06/02 03:50:08;;;;;;;9.87;6.70;;;14.10;1.00;;;;;;5012307;28;20186;-75
2023/06/02 03:52:34;;;;;;;8.73;6.80;;;14.10;1.00;;;;;;5012359;28;20190;-75
2023/06/02 03:55:00;;;;;;;8.53;6.77;;;14.00;1.00;;;;;;5012253;28;20242;-75
2023/06/02 03:57:26;;;;;;;7.93;6.70;;;14.00;1.00;;;;;;5010928;28;20210;-75
2023/06/02 03:59:51;;;;;;;8.10;6.47;;;14.00;1.00;;;;;;5012014;28;20222;-75
2023/06/02 04:02:17;;;;;;;9.33;6.70;;;14.00;1.00;;;;;;5012090;28;20429;-74
2023/06/02 04:04:42;;;;;;;11.27;7.73;;;14.10;1.00;;;;;;5011954;28;20214;-75
2023/06/02 04:07:08;;;;;;;10.37;7.20;;;14.00;1.00;;;;;;5011717;28;20633;-75
2023/06/02 04:09:34;;;;;;;12.47;7.00;;;14.10;1.00;;;;;;5011955;28;20193;-75
2023/06/02 04:12:00;;;;;;;12.23;6.97;;;14.10;1.00;;;;;;5010384;28;20205;-76
2023/06/02 04:14:27;;;;;;;12.17;7.77;;;14.00;1.00;;;;;;5011983;28;20461;-75
2023/06/02 04:16:53;;;;;;;8.70;6.50;;;12.40;1.00;;;;;;5011546;28;20699;-73
2023/06/02 04:19:18;;;;;;;9.80;7.30;;;14.00;1.00;;;;;;5011890;28;20429;-75
2023/06/02 04:21:44;;;;;;;9.90;6.63;;;13.90;1.00;;;;;;5012363;28;20187;-76
2023/06/02 04:24:09;;;;;;;10.70;7.00;;;14.00;1.00;;;;;;5011249;28;20216;-75
2023/06/02 04:26:35;;;;;;;8.20;6.60;;;14.00;1.00;;;;;;5011912;28;20580;-75
2023/06/02 04:29:00;;;;;;;27.73;6.97;;;14.00;1.00;;;;;;5011525;28;20573;-75
2023/06/02 04:31:50;;;;;;;9.03;6.80;;;13.90;1.00;;;;;;5010177;28;20249;-75
2023/06/02 04:34:15;;;;;;;7.83;6.33;;;14.00;1.00;;;;;;5011310;28;20186;-75
2023/06/02 04:36:42;;;;;;;9.03;7.17;;;14.00;1.00;;;;;;5011242;28;20469;-75
2023/06/02 04:39:09;;;;;;;9.23;7.00;;;14.00;1.00;;;;;;5011285;28;20186;-75
2023/06/02 04:41:36;;;;;;;11.87;6.90;;;14.00;1.00;;;;;;5011651;28;20425;-75
2023/06/02 04:44:02;;;;;;;8.47;6.77;;;14.00;1.00;;;;;;5011204;28;20525;-75
2023/06/02 04:46:28;;;;;;;11.50;7.17;;;14.10;1.00;;;;;;5009813;28;21014;-75
2023/06/02 04:48:54;;;;;;;9.70;6.80;;;14.10;1.00;;;;;;5009839;28;20460;-74
2023/06/02 04:51:26;;;;;;;10.03;6.87;;;14.10;1.00;;;;;;5011611;28;20560;-75
2023/06/02 04:53:51;;;;;;;11.50;7.17;;;14.20;1.00;;;;;;5011122;28;20433;-76
2023/06/02 04:56:17;;;;;;;10.60;6.00;;;14.20;1.00;;;;;;5009168;28;20459;-74
2023/06/02 04:58:42;;;;;;;9.17;6.23;;;14.30;1.00;;;;;;5011571;28;20576;-75
2023/06/02 05:01:08;;;;;;;8.40;6.63;;;14.30;1.00;;;;;;5010902;28;20182;-75
2023/06/02 05:03:33;;;;;;;11.53;6.77;;;14.40;1.00;;;;;;5010656;28;20198;-75
2023/06/02 05:05:59;;;;;;;9.13;6.57;;;14.40;1.00;;;;;;5010822;28;20586;-75
2023/06/02 05:08:25;;;;;;;8.77;6.73;;;14.50;1.00;;;;;;5010948;28;20657;-75
2023/06/02 05:10:50;;;;;;;11.13;6.87;;;14.50;1.00;;;;;;5009704;28;20265;-75
2023/06/02 05:13:17;;;;;;;10.67;6.97;;;14.60;1.00;;;;;;5010164;28;20202;-75
2023/06/02 05:15:43;;;;;;;10.10;6.10;;;14.70;1.00;;;;;;5010764;28;20210;-75
2023/06/02 05:18:09;;;;;;;8.90;6.70;;;14.70;1.00;;;;;;5010229;28;20468;-75
2023/06/02 05:20:35;;;;;;;7.40;5.97;;;16.60;1.00;;;;;;5011159;28;20804;-75
2023/06/02 05:23:00;;;;;;;8.60;6.10;;;14.80;1.00;;;;;;5010475;28;20261;-75
2023/06/02 05:25:26;;;;;;;8.07;6.27;;;14.80;1.00;;;;;;5010648;28;20195;-75
2023/06/02 05:27:51;;;;;;;12.00;7.27;;;14.80;1.00;;;;;;5010571;28;20194;-75
2023/06/02 05:30:17;;;;;;;12.67;7.33;;;14.80;1.00;;;;;;5009385;28;20185;-75
2023/06/02 05:32:42;;;;;;;10.73;7.13;;;14.80;1.00;;;;;;5009061;28;20189;-75
2023/06/02 05:35:08;;;;;;;8.73;6.80;;;15.00;1.00;;;;;;5010179;28;20719;-75
2023/06/02 05:37:34;;;;;;;12.20;7.23;;;15.00;1.00;;;;;;5008687;28;20264;-75
2023/06/02 05:39:59;;;;;;;10.43;6.97;;;15.00;1.00;;;;;;5010342;28;20265;-75
2023/06/02 05:42:25;;;;;;;11.00;6.90;;;15.00;1.00;;;;;;5010677;28;20186;-75
2023/06/02 05:44:51;;;;;;;12.17;6.57;;;15.10;1.00;;;;;;5010102;28;20213;-75
2023/06/02 05:47:16;;;;;;;8.87;6.90;;;15.00;1.00;;;;;;5010312;28;20652;-76
2023/06/02 05:49:42;;;;;;;9.13;6.47;;;15.10;1.00;;;;;;5011449;28;20200;-75
2023/06/02 05:52:08;;;;;;;12.93;6.50;;;15.20;1.00;;;;;;5009389;28;20213;-75
2023/06/02 05:54:33;;;;;;;11.17;7.03;;;15.20;1.00;;;;;;5010710;28;20197;-75
2023/06/02 05:56:59;;;;;;;8.33;6.70;;;15.20;1.00;;;;;;5010103;28;20660;-75
2023/06/02 05:59:24;;;;;;;9.80;6.90;;;15.20;1.00;;;;;;5010838;28;20186;-75
2023/06/02 06:01:50;;;;;;;13.40;7.07;;;15.30;1.00;;;;;;5010542;28;20186;-75
2023/06/02 06:04:15;;;;;;;11.40;6.80;;;15.40;1.00;;;;;;5011371;28;20201;-75
2023/06/02 06:06:41;;;;;;;8.43;6.80;;;15.40;1.00;;;;;;5017052;28;20214;-75
2023/06/02 06:09:06;;;;;;;8.90;6.50;;;15.50;1.00;;;;;;5015536;28;20669;-76
2023/06/02 06:11:33;;;;;;;9.10;6.43;;;15.60;1.00;;;;;;5017180;28;20190;-75
2023/06/02 06:14:00;;;;;;;8.40;6.83;;;15.70;1.00;;;;;;5016893;28;20190;-76
2023/06/02 06:16:26;;;;;;;8.93;6.83;;;15.80;1.00;;;;;;5016753;28;20445;-75
2023/06/02 06:18:52;;;;;;;9.60;6.20;;;15.80;1.00;;;;;;5017040;28;20575;-75
2023/06/02 06:21:17;;;;;;;10.07;7.10;;;15.80;1.00;;;;;;5016753;28;20504;-75
2023/06/02 06:23:43;;;;;;;7.67;6.23;;;16.00;1.00;;;;;;5017262;28;20528;-75
2023/06/02 06:26:08;;;;;;;10.57;6.70;;;16.10;1.00;;;;;;5016934;28;20202;-75
2023/06/02 06:28:34;;;;;;;10.27;6.80;;;16.10;1.00;;;;;;5016836;28;20708;-75
2023/06/02 06:31:00;;;;;;;10.20;6.90;;;16.20;1.00;;;;;;5015743;28;20434;-76
2023/06/02 06:33:25;;;;;;;10.87;6.77;;;16.30;1.00;;;;;;5016707;28;20739;-76
2023/06/02 06:35:51;;;;;;;7.33;5.77;;;16.50;1.00;;;;;;5016787;28;20221;-75
2023/06/02 06:38:16;;;;;;;10.23;7.37;;;16.40;1.00;;;;;;5016348;28;20202;-76
2023/06/02 06:40:43;;;;;;;8.63;6.60;;;16.40;1.00;;;;;;5017230;28;20293;-76
2023/06/02 06:43:08;;;;;;;7.87;6.57;;;16.40;1.00;;;;;;5016540;28;20550;-76
2023/06/02 06:45:34;;;;;;;9.63;6.67;;;16.50;1.00;;;;;;5016679;28;20495;-76
2023/06/02 06:48:00;;;;;;;12.00;7.40;;;16.50;1.00;;;;;;5016570;28;20269;-76
2023/06/02 06:50:25;;;;;;;10.60;6.90;;;16.70;1.00;;;;;;5015525;28;20252;-76
2023/06/02 06:52:51;;;;;;;8.83;7.30;;;16.70;1.00;;;;;;5016789;28;20636;-76
2023/06/02 06:55:17;;;;;;;8.00;6.77;;;16.70;1.00;;;;;;5016407;28;20256;-76
2023/06/02 06:57:42;;;;;;;9.57;6.43;;;16.70;1.00;;;;;;5014032;28;20202;-76
2023/06/02 07:00:08;;;;;;;7.80;6.40;;;16.80;1.00;;;;;;5015233;28;20584;-76
2023/06/02 07:02:34;;;;;;;11.00;7.43;;;17.00;1.00;;;;;;5016447;28;20184;-76
2023/06/02 07:04:59;;;;;;;11.33;8.10;;;17.10;1.00;;;;;;5016557;28;20198;-76
2023/06/02 07:07:25;;;;;;;8.63;6.60;;;17.10;1.00;;;;;;5016159;28;20194;-76
2023/06/02 07:09:50;;;;;;;16.40;7.13;;;17.30;1.00;;;;;;5016307;28;20236;-76
2023/06/02 07:12:16;;;;;;;10.67;7.10;;;17.20;1.00;;;;;;5016161;28;20191;-76
2023/06/02 07:14:41;;;;;;;10.50;7.30;;;17.50;1.00;;;;;;5016430;28;20186;-76
2023/06/02 07:17:08;;;;;;;9.43;7.17;;;17.50;1.00;;;;;;5013383;28;20610;-76
2023/06/02 07:19:33;;;;;;;12.23;6.60;;;17.60;1.00;;;;;;5013541;28;20193;-76
2023/06/02 07:21:59;;;;;;;10.43;7.60;;;17.70;1.00;;;;;;5013411;28;20413;-75
2023/06/02 07:24:24;;;;;;;9.60;7.20;;;18.00;1.00;;;;;;5013028;28;20641;-76
2023/06/02 07:26:50;;;;;;;10.37;7.40;;;18.00;1.00;;;;;;5013701;28;20201;-76
2023/06/02 07:29:15;;;;;;;12.50;7.90;;;18.20;1.00;;;;;;5011467;28;20182;-76
2023/06/02 07:31:43;;;;;;;10.20;8.30;;;18.30;1.00;;;;;;5012939;28;20198;-76
2023/06/02 07:34:08;;;;;;;10.57;7.93;;;19.80;1.00;;;;;;5012898;28;20187;-76
2023/06/02 07:36:34;;;;;;;9.60;7.50;;;18.60;1.00;;;;;;5013011;28;20515;-76
2023/06/02 07:39:00;;;;;;;11.60;8.40;;;18.90;1.00;;;;;;5013100;28;20189;-76
2023/06/02 07:41:27;;;;;;;12.13;7.80;;;19.00;1.00;;;;;;5012352;28;20190;-76
2023/06/02 07:43:53;;;;;;;8.93;7.20;;;19.00;1.00;;;;;;5012978;28;20220;-76
2023/06/02 07:46:18;;;;;;;10.40;7.30;;;19.10;1.00;;;;;;5010969;28;20485;-76
2023/06/02 07:48:44;;;;;;;12.63;7.90;;;19.20;1.00;;;;;;5011087;28;20237;-76
2023/06/02 07:51:09;;;;;;;10.70;8.10;;;19.30;1.00;;;;;;5010750;28;20228;-76
2023/06/02 07:53:35;;;;;;;10.53;8.00;;;19.30;1.00;;;;;;5012549;28;20522;-78
2023/06/02 07:56:00;;;;;;;11.03;7.67;;;19.40;1.00;;;;;;5009802;28;20238;-76
2023/06/02 07:58:26;;;;;;;17.87;7.40;;;19.50;1.00;;;;;;5011441;28;20352;-76
2023/06/02 08:00:51;;;;;;;15.17;8.27;;;19.70;1.00;;;;;;5012089;28;20603;-76
2023/06/02 08:03:17;;;;;;;11.13;8.00;;;19.70;1.00;;;;;;5011704;28;20186;-76
2023/06/02 08:05:44;;;;;;;11.50;7.70;;;20.00;1.00;;;;;;5010753;28;20198;-76
2023/06/02 08:08:10;;;;;;;10.40;7.40;;;20.10;1.00;;;;;;5011579;28;20261;-76
2023/06/02 08:10:35;;;;;;;10.10;7.60;;;20.20;1.00;;;;;;5012130;28;20599;-76
2023/06/02 08:13:01;;;;;;;10.43;7.60;;;20.30;1.00;;;;;;5011952;28;20186;-76
2023/06/02 08:15:27;;;;;;;14.17;8.17;;;20.50;1.00;;;;;;5010046;28;20753;-76
2023/06/02 08:17:52;;;;;;;10.83;7.50;;;20.50;1.00;;;;;;5011642;28;20210;-76
2023/06/02 08:20:18;;;;;;;9.87;7.50;;;20.60;1.00;;;;;;5011622;28;20233;-76
2023/06/02 08:22:47;;;;;;;12.40;7.10;;;20.80;1.00;;;;;;5011756;28;20213;-76
2023/06/02 08:25:12;;;;;;;11.93;7.13;;;21.20;1.00;;;;;;5009984;28;20197;-76
2023/06/02 08:27:41;;;;;;;11.77;7.60;;;21.20;1.00;;;;;;5010941;28;20516;-74
2023/06/02 08:30:07;;;;;;;11.23;7.40;;;21.30;1.00;;;;;;5011685;28;20273;-76
2023/06/02 08:32:33;;;;;;;13.23;7.63;;;21.50;1.00;;;;;;5003530;28;20436;-76
2023/06/02 08:35:01;;;;;;;12.63;8.23;;;21.10;1.00;;;;;;5011417;28;20456;-76
2023/06/02 08:37:27;;;;;;;12.57;7.87;;;21.00;1.00;;;;;;5011054;28;20288;-77
2023/06/02 08:39:52;;;;;;;11.03;7.47;;;21.10;1.00;;;;;;5011594;28;20413;-76
2023/06/02 08:42:18;;;;;;;14.07;7.30;;;21.20;1.00;;;;;;5010997;28;20812;-76
2023/06/02 08:44:44;;;;;;;10.83;7.53;;;21.40;1.00;;;;;;5011092;28;20217;-78
2023/06/02 08:47:13;;;;;;;9.90;6.70;;;21.50;1.00;;;;;;5010856;28;20186;-76
2023/06/02 08:49:46;;;;;;;10.70;7.60;;;21.90;1.00;;;;;;5011370;28;20436;-76
2023/06/02 08:52:15;;;;;;;12.13;6.53;;;22.30;1.00;;;;;;5011011;28;20927;-76
2023/06/02 08:54:41;;;;;;;9.90;7.07;;;22.80;1.00;;;;;;5011553;28;20467;-76
2023/06/02 08:57:09;;;;;;;10.23;6.90;;;22.80;1.00;;;;;;5010681;28;20533;-76
2023/06/02 08:59:35;;;;;;;11.07;6.80;;;23.10;1.00;;;;;;5011136;28;20417;-76
2023/06/02 09:02:01;;;;;;;11.20;7.57;;;23.90;1.00;;;;;;5011286;28;20425;-76
2023/06/02 09:04:27;;;;;;;11.60;6.70;;;25.40;1.00;;;;;;5010588;28;20444;-76
2023/06/02 09:07:11;;;;;;;11.53;7.53;;;25.30;1.00;;;;;;5010927;28;20201;-77
2023/06/02 09:09:44;;;;;;;11.80;6.20;;;25.50;1.00;;;;;;5010234;28;20565;-78
2023/06/02 09:12:10;;;;;;;9.43;6.87;;;26.30;1.00;;;;;;5010773;28;20425;-75
2023/06/02 09:14:37;;;;;;;15.83;6.50;;;28.00;1.00;;;;;;5009739;28;20849;-75
2023/06/02 09:17:03;;;;;;;9.43;6.57;;;28.10;1.00;;;;;;5010699;28;20292;-76
2023/06/02 09:19:49;;;;;;;8.30;6.70;;;28.90;1.00;;;;;;5010656;28;20239;-77
2023/06/02 09:22:15;;;;;;;8.10;6.43;;;29.40;1.00;;;;;;5009000;28;20190;-77
2023/06/02 09:24:40;;;;;;;13.57;7.28;;;29.70;1.00;;;;;;5010540;28;20185;-77
2023/06/02 09:27:11;;;;;;;8.95;6.25;;;29.80;1.00;;;;;;5010630;28;20231;-77
2023/06/02 09:29:41;;;;;;;12.88;6.70;;;30.20;1.00;;;;;;5010902;28;20182;-76
2023/06/02 09:32:15;;;;;;;9.32;6.35;;;30.10;1.00;;;;;;5010641;28;20521;-77
2023/06/02 09:34:41;;;;;;;10.27;6.00;;;31.20;1.00;;;;;;5002683;28;20328;-77
2023/06/02 09:37:15;;;;;;;9.68;5.93;;;30.10;1.00;;;;;;5008996;28;20217;-77
2023/06/02 09:39:42;;;;;;;9.00;6.43;;;30.30;1.00;;;;;;5008458;28;20617;-77
2023/06/02 09:42:08;;;;;;;10.85;6.15;;;31.30;1.00;;;;;;5010463;28;20644;-77
2023/06/02 09:44:34;;;;;;;9.98;6.75;;;32.10;1.00;;;;;;5009499;28;20267;-76
2023/06/02 09:47:02;;;;;;;8.20;6.47;;;32.10;1.00;;;;;;5009613;28;20213;-77
2023/06/02 09:49:39;;;;;;;9.35;6.47;;;32.20;1.00;;;;;;5010931;28;20193;-78
2023/06/02 09:52:15;;;;;;;8.70;6.45;;;31.50;1.00;;;;;;5010682;28;20638;-77
2023/06/02 09:54:46;;;;;;;10.35;6.35;;;32.10;1.00;;;;;;5001737;28;20182;-77
2023/06/02 09:57:12;;;;;;;9.85;6.88;;;32.20;1.00;;;;;;5008074;28;20202;-77
2023/06/02 09:59:39;;;;;;;9.05;6.40;;;31.50;1.00;;;;;;5005993;28;20197;-77
2023/06/02 10:02:08;;;;;;;11.32;6.05;;;31.30;1.00;;;;;;5010350;28;20178;-77
2023/06/02 10:04:33;;;;;;;10.70;6.53;;;32.00;1.00;;;;;;5007675;28;20186;-77
2023/06/02 10:07:26;;;;;;;10.82;6.00;;;32.10;1.00;;;;;;5009298;28;20185;-76
2023/06/02 10:10:10;;;;;;;13.05;6.90;;;32.70;1.00;;;;;;5002983;28;20280;-77
2023/06/02 10:13:00;;;;;;;10.48;6.78;;;32.80;1.00;;;;;;5010425;28;20190;-77
2023/06/02 10:15:58;;;;;;;10.35;6.13;;;33.00;1.00;;;;;;5010232;28;20195;-77
2023/06/02 10:18:55;;;;;;;9.07;5.93;;;33.50;1.00;;;;;;5009841;28;20676;-77
2023/06/02 10:21:37;;;;;;;7.47;6.32;;;33.70;1.00;;;;;;5010117;28;20228;-77
2023/06/02 10:24:15;;;;;;;11.13;6.57;;;33.50;1.00;;;;;;5010501;28;20212;-77
2023/06/02 10:27:02;;;;;;;11.02;6.70;;;32.60;1.00;;;;;;5010283;28;20809;-77
2023/06/02 10:29:29;;;;;;;13.27;6.72;;;32.50;1.00;;;;;;5008976;28;20636;-77
2023/06/02 10:31:55;;;;;;;8.23;6.45;;;31.90;1.00;;;;;;5010858;28;20182;-78
2023/06/02 10:34:38;;;;;;;15.65;5.93;;;32.60;1.00;;;;;;5008845;28;20189;-77
2023/06/02 10:37:03;;;;;;;9.80;6.20;;;32.70;1.00;;;;;;5008710;28;20237;-77
2023/06/02 10:39:41;;;;;;;10.45;5.93;;;33.40;1.00;;;;;;5010167;28;20267;-78
2023/06/02 10:42:08;;;;;;;9.75;5.90;;;34.50;1.00;;;;;;5010459;28;20316;-77
2023/06/02 10:44:33;;;;;;;8.68;5.93;;;35.10;1.00;;;;;;5009847;28;20182;-76
2023/06/02 10:47:17;;;;;;;8.77;6.57;;;35.40;1.00;;;;;;5010512;28;20560;-76
2023/06/02 10:49:53;;;;;;;17.67;6.40;;;35.60;1.00;;;;;;5010274;28;20193;-77
2023/06/02 10:52:19;;;;;;;9.35;5.90;;;34.40;1.00;;;;;;5013555;28;20189;-77
2023/06/02 10:54:45;;;;;;;8.30;6.03;;;35.40;1.00;;;;;;5014191;28;20193;-77
2023/06/02 10:57:12;;;;;;;7.82;5.88;;;35.20;1.00;;;;;;5012251;28;20252;-78
2023/06/02 10:59:38;;;;;;;7.28;5.55;;;35.20;1.00;;;;;;5013656;28;20174;-77
2023/06/02 11:02:04;;;;;;;16.98;6.80;;;35.70;1.00;;;;;;5013658;28;20189;-78
2023/06/02 11:04:31;;;;;;;9.82;6.15;;;34.90;1.00;;;;;;5013568;28;20715;-78
2023/06/02 11:07:21;;;;;;;10.20;5.82;;;35.00;1.00;;;;;;5013844;28;20324;-77
2023/06/02 11:09:50;;;;;;;8.68;5.85;;;35.90;1.00;;;;;;5006659;28;20178;-77
2023/06/02 11:12:15;;;;;;;9.02;5.60;;;36.70;1.00;;;;;;5012148;28;20204;-77
2023/06/02 11:15:04;;;;;;;13.68;5.93;;;36.80;1.00;;;;;;5013734;28;20653;-77
2023/06/02 11:17:35;;;;;;;8.40;5.70;;;37.00;1.00;;;;;;5011697;28;20201;-78
2023/06/02 11:20:04;;;;;;;8.60;6.07;;;36.50;1.00;;;;;;5013700;28;20177;-77
2023/06/02 11:22:31;;;;;;;10.98;5.93;;;36.10;1.00;;;;;;5013106;28;20232;-77
2023/06/02 11:24:59;;;;;;;7.82;6.00;;;35.50;1.00;;;;;;5013235;28;20277;-77
2023/06/02 11:27:40;;;;;;;12.93;5.68;;;35.50;1.00;;;;;;5011556;28;20178;-77
2023/06/02 11:30:08;;;;;;;15.40;5.97;;;35.80;1.00;;;;;;5013404;28;20178;-77
2023/06/02 11:32:34;;;;;;;8.30;5.25;;;35.40;1.00;;;;;;5012988;28;20213;-78
2023/06/02 11:35:01;;;;;;;10.05;5.30;;;35.50;1.00;;;;;;5013145;28;20233;-77
2023/06/02 11:37:27;;;;;;;8.93;5.43;;;35.50;1.00;;;;;;5012580;28;20288;-77
2023/06/02 11:39:53;;;;;;;8.15;5.43;;;36.00;1.00;;;;;;5013271;28;20265;-77
2023/06/02 11:42:19;;;;;;;14.82;5.13;;;36.40;1.00;;;;;;5011490;28;20184;-76
2023/06/02 11:44:49;;;;;;;10.50;5.78;;;36.70;1.00;;;;;;5012897;28;20639;-79
2023/06/02 11:47:21;;;;;;;9.05;5.70;;;36.80;1.00;;;;;;5012409;28;20211;-77
2023/06/02 11:49:47;;;;;;;7.07;5.22;;;35.70;1.00;;;;;;5012391;28;20197;-77
2023/06/02 11:52:13;;;;;;;10.50;5.40;;;34.80;1.00;;;;;;5011087;28;20182;-77
2023/06/02 11:54:50;;;;;;;8.98;5.70;;;35.30;1.00;;;;;;5012205;28;20220;-77
2023/06/02 11:57:33;;;;;;;8.40;5.38;;;35.50;1.00;;;;;;5011891;28;20193;-77
2023/06/02 12:00:09;;;;;;;6.93;5.20;;;36.20;1.00;;;;;;5012793;28;20177;-77
2023/06/02 12:02:39;;;;;;;8.65;5.50;;;37.00;1.00;;;;;;5010853;28;20196;-77
2023/06/02 12:05:07;;;;;;;9.68;4.90;;;36.90;1.00;;;;;;5010493;28;20249;-77
2023/06/02 12:07:33;;;;;;;8.30;5.80;;;36.70;1.00;;;;;;5010447;28;20255;-77
2023/06/02 12:09:59;;;;;;;6.13;4.82;;;36.80;1.00;;;;;;5011869;28;20636;-77
2023/06/02 12:12:24;;;;;;;7.35;4.80;;;37.20;1.00;;;;;;5009430;28;20182;-78
2023/06/02 12:14:50;;;;;;;8.38;5.20;;;37.10;1.00;;;;;;5011760;28;20212;-77
2023/06/02 12:17:16;;;;;;;9.90;5.55;;;37.20;1.00;;;;;;5010409;28;20236;-77
2023/06/02 12:19:41;;;;;;;8.48;5.10;;;37.50;1.00;;;;;;5011645;28;20289;-77
2023/06/02 12:22:17;;;;;;;12.07;5.25;;;37.90;1.00;;;;;;5011883;28;20190;-78
2023/06/02 12:24:44;;;;;;;7.93;5.38;;;38.10;1.00;;;;;;5011959;28;20280;-77
2023/06/02 12:27:10;;;;;;;7.15;5.78;;;38.00;1.00;;;;;;5010209;28;20182;-77
2023/06/02 12:29:36;;;;;;;7.22;4.97;;;38.10;1.00;;;;;;5011146;28;20182;-76
2023/06/02 12:32:06;;;;;;;6.95;5.03;;;38.30;1.00;;;;;;5011848;28;20196;-78
2023/06/02 12:34:32;;;;;;;9.02;5.20;;;37.70;1.00;;;;;;5011098;28;20563;-76
2023/06/02 12:36:58;;;;;;;9.00;5.50;;;37.60;1.00;;;;;;5011562;28;20304;-78
2023/06/02 12:39:24;;;;;;;7.90;5.30;;;37.50;1.00;;;;;;5011252;28;20256;-78
2023/06/02 12:41:50;;;;;;;11.27;4.88;;;38.40;1.00;;;;;;5010099;28;20645;-77
2023/06/02 12:44:16;;;;;;;14.00;5.32;;;38.20;1.00;;;;;;5011376;28;20256;-77
2023/06/02 12:46:41;;;;;;;8.43;5.30;;;37.60;1.00;;;;;;5009599;28;20214;-77
2023/06/02 12:49:08;;;;;;;7.50;4.60;;;37.30;1.00;;;;;;5011221;28;20182;-77
2023/06/02 12:51:35;;;;;;;7.80;5.13;;;38.00;1.00;;;;;;5011115;28;20182;-77
2023/06/02 12:54:00;;;;;;;8.98;5.32;;;37.70;1.00;;;;;;5011337;28;20178;-77